Weather at Antonio Maceo International Airport

Public forecast

Using degrees Celsius for public forecast. Weather courtesy of forecast.io.

Current aviation weather report (METAR) for Antonio Maceo International Airport

Retrieved 2021/09/28 14:50 UTC (36 minutes ago):

MUCU 281450Z 18006KT 140V200 9000 SCT020 30/23 Q1014

Aviation forecast (TAF) for Antonio Maceo International Airport

Retrieved 2021/09/28 12:03 UTC (3 hours ago):

TAF MUCU 281100Z 2812/2912 VRB03KT 9000 SCT020 TEMPO 2818/2824 SCT018CB